createdAt,value
2023-05-05T00:02:10.277Z,14.54
2023-05-05T00:04:37.425Z,14.56
2023-05-05T00:07:05.278Z,14.58
2023-05-05T00:09:32.321Z,14.61
2023-05-05T00:11:59.767Z,14.61
2023-05-05T00:14:26.844Z,14.60
2023-05-05T00:16:54.280Z,14.46
2023-05-05T00:19:21.610Z,14.42
2023-05-05T00:21:48.829Z,14.40
2023-05-05T00:24:38.161Z,14.43
2023-05-05T00:27:05.429Z,14.47
2023-05-05T00:29:32.906Z,14.46
2023-05-05T00:32:00.181Z,14.44
2023-05-05T00:34:27.260Z,14.51
2023-05-05T00:36:54.716Z,14.50
2023-05-05T00:39:23.573Z,14.48
2023-05-05T00:42:25.533Z,14.52
2023-05-05T00:44:52.981Z,14.52
2023-05-05T00:47:20.433Z,14.49
2023-05-05T00:49:47.955Z,14.46
2023-05-05T00:52:15.083Z,14.44
2023-05-05T00:54:42.409Z,14.41
2023-05-05T00:57:10.196Z,14.37
2023-05-05T00:59:37.653Z,14.40
2023-05-05T01:02:04.755Z,14.40
2023-05-05T01:04:31.943Z,14.42
2023-05-05T01:06:58.897Z,14.38
2023-05-05T01:09:36.718Z,14.29
2023-05-05T01:12:06.819Z,14.23
2023-05-05T01:14:40.114Z,14.23
2023-05-05T01:17:13.452Z,14.17
2023-05-05T01:19:43.667Z,14.16
2023-05-05T01:22:13.999Z,14.08
2023-05-05T01:25:00.042Z,14.18
2023-05-05T01:27:27.517Z,14.25
2023-05-05T01:29:54.749Z,14.28
2023-05-05T01:32:29.579Z,14.26
2023-05-05T01:35:00.868Z,14.30
2023-05-05T01:37:34.635Z,14.31
2023-05-05T01:40:05.598Z,14.29
2023-05-05T01:42:34.455Z,14.30
2023-05-05T01:45:03.827Z,14.27
2023-05-05T01:47:31.526Z,14.23
2023-05-05T01:49:59.166Z,14.22
2023-05-05T01:52:27.395Z,14.24
2023-05-05T01:54:55.270Z,14.21
2023-05-05T01:57:25.655Z,14.22
2023-05-05T01:59:53.856Z,14.19
2023-05-05T02:02:21.519Z,14.18
2023-05-05T02:04:50.490Z,14.15
2023-05-05T02:07:17.636Z,14.11
2023-05-05T02:09:45.946Z,14.21
2023-05-05T02:12:13.887Z,14.17
2023-05-05T02:14:42.463Z,14.18
2023-05-05T02:17:09.985Z,14.14
2023-05-05T02:19:40.030Z,14.22
2023-05-05T02:22:07.696Z,14.18
2023-05-05T02:24:35.236Z,14.20
2023-05-05T02:27:04.388Z,14.15
2023-05-05T02:29:36.085Z,14.21
2023-05-05T02:32:06.278Z,14.18
2023-05-05T02:34:37.857Z,14.18
2023-05-05T02:37:11.117Z,14.11
2023-05-05T02:39:48.005Z,14.12
2023-05-05T02:42:21.317Z,14.08
2023-05-05T02:44:52.486Z,14.10
2023-05-05T02:47:20.862Z,14.11
2023-05-05T02:49:49.079Z,14.09
2023-05-05T02:52:16.566Z,14.16
2023-05-05T02:54:45.161Z,14.12
2023-05-05T02:57:18.916Z,14.12
2023-05-05T02:59:58.972Z,13.99
2023-05-05T03:02:42.061Z,14.00
2023-05-05T03:05:19.934Z,14.03
2023-05-05T03:07:56.151Z,13.99
2023-05-05T03:10:35.352Z,13.97
2023-05-05T03:13:03.458Z,14.00
2023-05-05T03:15:44.152Z,13.99
2023-05-05T03:18:11.955Z,14.01
2023-05-05T03:20:42.753Z,14.01
2023-05-05T03:23:13.808Z,14.00
2023-05-05T03:25:44.042Z,13.91
2023-05-05T03:28:16.112Z,13.98
2023-05-05T03:30:43.537Z,14.00
2023-05-05T03:33:12.425Z,13.99
2023-05-05T03:35:42.093Z,14.02
2023-05-05T03:38:12.400Z,13.96
2023-05-05T03:40:44.512Z,13.86
2023-05-05T03:43:16.914Z,13.92
2023-05-05T03:45:44.444Z,13.88
2023-05-05T03:48:12.531Z,13.90
2023-05-05T03:50:41.912Z,13.88
2023-05-05T03:53:09.677Z,13.93
2023-05-05T03:55:39.554Z,13.92
2023-05-05T03:58:17.180Z,13.91
2023-05-05T04:00:54.529Z,13.92
2023-05-05T04:03:23.458Z,13.95
2023-05-05T04:05:52.592Z,13.96
2023-05-05T04:08:24.375Z,13.96
2023-05-05T04:11:02.981Z,14.02
2023-05-05T04:13:39.343Z,13.95
2023-05-05T04:16:11.786Z,13.95
2023-05-05T04:18:43.488Z,13.97
2023-05-05T04:21:11.171Z,13.99
2023-05-05T04:23:38.990Z,13.99
2023-05-05T04:26:08.222Z,14.03
2023-05-05T04:28:37.999Z,14.03
2023-05-05T04:31:08.199Z,14.01
2023-05-05T04:33:40.625Z,14.02
2023-05-05T04:36:32.311Z,13.96
2023-05-05T04:39:00.433Z,13.99
2023-05-05T04:41:30.171Z,13.99
2023-05-05T04:43:58.479Z,14.04
2023-05-05T04:46:45.299Z,14.01
2023-05-05T04:49:13.269Z,14.00
2023-05-05T04:51:43.528Z,13.94
2023-05-05T04:54:10.800Z,13.91
2023-05-05T04:56:40.213Z,13.95
2023-05-05T04:59:08.150Z,13.96
2023-05-05T05:01:37.753Z,13.94
2023-05-05T05:04:06.038Z,13.95
2023-05-05T05:06:33.278Z,13.99
2023-05-05T05:09:00.480Z,13.98
2023-05-05T05:11:27.950Z,13.88
2023-05-05T05:13:55.133Z,13.90
2023-05-05T05:16:22.453Z,13.85
2023-05-05T05:18:49.442Z,13.84
2023-05-05T05:21:17.270Z,13.83
2023-05-05T05:23:44.165Z,13.84
2023-05-05T05:26:11.852Z,13.83
2023-05-05T05:28:39.493Z,13.89
2023-05-05T05:31:08.473Z,13.91
2023-05-05T05:33:35.942Z,13.83
2023-05-05T05:36:03.261Z,13.85
2023-05-05T05:38:31.694Z,13.90
2023-05-05T05:41:05.435Z,13.88
2023-05-05T05:43:34.636Z,13.87
2023-05-05T05:46:03.711Z,13.87
2023-05-05T05:48:31.455Z,13.92
2023-05-05T05:50:59.956Z,13.96
2023-05-05T05:53:27.340Z,13.96
2023-05-05T05:55:55.148Z,14.02
2023-05-05T05:58:22.345Z,14.02
2023-05-05T06:00:49.790Z,14.03
2023-05-05T06:06:46.775Z,14.05
2023-05-05T06:09:14.760Z,14.05
2023-05-05T06:11:42.193Z,14.03
2023-05-05T06:14:09.365Z,13.97
2023-05-05T06:16:36.815Z,14.03
2023-05-05T06:19:10.068Z,14.03
2023-05-05T06:21:37.952Z,14.08
2023-05-05T06:24:05.288Z,14.09
2023-05-05T06:26:33.129Z,14.09
2023-05-05T06:29:00.684Z,14.16
2023-05-05T06:31:28.049Z,14.18
2023-05-05T06:33:55.653Z,14.24
2023-05-05T06:36:23.151Z,14.25
2023-05-05T06:38:51.007Z,14.30
2023-05-05T06:41:18.725Z,14.29
2023-05-05T06:43:46.305Z,14.33
2023-05-05T06:46:14.306Z,14.37
2023-05-05T06:48:41.590Z,14.41
2023-05-05T06:51:09.735Z,14.44
2023-05-05T06:53:37.062Z,14.47
2023-05-05T06:56:04.270Z,14.55
2023-05-05T06:58:32.164Z,14.60
2023-05-05T07:00:59.338Z,14.66
2023-05-05T07:03:28.162Z,14.69
2023-05-05T07:05:55.314Z,14.74
2023-05-05T07:08:22.487Z,14.74
2023-05-05T07:10:50.511Z,14.77
2023-05-05T07:13:17.714Z,14.79
2023-05-05T07:15:46.939Z,14.87
2023-05-05T07:18:17.397Z,14.92
2023-05-05T07:20:44.789Z,14.98
2023-05-05T07:23:11.989Z,14.99
2023-05-05T07:25:39.250Z,15.02
2023-05-05T07:28:06.689Z,15.14
2023-05-05T07:30:33.715Z,15.10
2023-05-05T07:33:00.801Z,15.09
2023-05-05T07:35:28.548Z,15.16
2023-05-05T07:37:55.721Z,15.19
2023-05-05T07:40:22.860Z,15.17
2023-05-05T07:42:50.350Z,15.22
2023-05-05T07:45:17.964Z,15.26
2023-05-05T07:47:45.193Z,15.28
2023-05-05T07:50:12.394Z,15.30
2023-05-05T07:55:10.619Z,15.34
2023-05-05T07:57:40.555Z,15.32
2023-05-05T08:00:08.151Z,15.36
2023-05-05T08:02:41.858Z,15.38
2023-05-05T08:05:09.776Z,15.39
2023-05-05T08:07:41.774Z,15.40
2023-05-05T08:10:10.518Z,15.44
2023-05-05T08:12:37.772Z,15.53
2023-05-05T08:15:05.672Z,15.64
2023-05-05T08:17:47.146Z,15.75
2023-05-05T08:20:14.697Z,15.73
2023-05-05T08:22:42.669Z,15.77
2023-05-05T08:25:11.539Z,15.81
2023-05-05T08:27:39.237Z,15.85
2023-05-05T08:30:06.827Z,15.87
2023-05-05T08:32:34.114Z,15.93
2023-05-05T08:35:02.159Z,16.02
2023-05-05T08:37:29.867Z,16.13
2023-05-05T08:40:00.498Z,16.23
2023-05-05T08:42:37.145Z,16.32
2023-05-05T08:45:06.358Z,16.32
2023-05-05T08:47:33.963Z,16.38
2023-05-05T08:50:02.607Z,16.46
2023-05-05T08:52:33.024Z,16.56
2023-05-05T08:55:09.170Z,16.50
2023-05-05T08:58:06.126Z,16.57
2023-05-05T09:00:33.797Z,16.66
2023-05-05T09:03:01.894Z,16.78
2023-05-05T09:05:29.697Z,16.98
2023-05-05T09:07:56.773Z,17.00
2023-05-05T09:10:25.634Z,17.07
2023-05-05T09:12:52.735Z,17.31
2023-05-05T09:15:19.867Z,17.36
2023-05-05T09:17:46.980Z,17.42
2023-05-05T09:20:14.803Z,17.66
2023-05-05T09:22:43.048Z,17.90
2023-05-05T09:25:11.809Z,18.07
2023-05-05T09:27:41.254Z,18.29
2023-05-05T09:30:09.412Z,18.27
2023-05-05T09:32:53.021Z,18.34
2023-05-05T09:35:21.312Z,18.51
2023-05-05T09:37:48.587Z,18.59
2023-05-05T09:40:19.462Z,18.66
2023-05-05T09:42:46.965Z,18.86
2023-05-05T09:45:20.194Z,19.14
2023-05-05T09:47:48.134Z,19.37
2023-05-05T09:50:17.315Z,19.38
2023-05-05T09:53:03.458Z,19.53
2023-05-05T09:55:33.821Z,19.72
2023-05-05T09:58:21.391Z,19.66
2023-05-05T10:00:48.647Z,19.69
2023-05-05T10:03:17.179Z,19.86
2023-05-05T10:05:49.401Z,19.97
2023-05-05T10:08:17.177Z,20.07
2023-05-05T10:10:50.851Z,20.12
2023-05-05T10:13:19.263Z,20.20
2023-05-05T10:15:51.039Z,20.21
2023-05-05T10:18:22.495Z,20.28
2023-05-05T10:20:52.691Z,20.26
2023-05-05T10:23:21.093Z,20.42
2023-05-05T10:25:52.952Z,20.39
2023-05-05T10:28:23.774Z,20.44
2023-05-05T10:30:54.658Z,20.54
2023-05-05T10:33:31.936Z,20.75
2023-05-05T10:36:01.724Z,20.92
2023-05-05T10:38:31.895Z,20.90
2023-05-05T10:41:00.333Z,20.93
2023-05-05T10:43:28.338Z,21.08
2023-05-05T10:45:56.028Z,21.03
2023-05-05T10:48:28.408Z,20.90
2023-05-05T10:50:59.922Z,20.83
2023-05-05T10:53:32.953Z,20.96
2023-05-05T10:56:05.693Z,21.23
2023-05-05T10:58:38.522Z,21.31
2023-05-05T11:01:11.172Z,21.38
2023-05-05T11:03:38.561Z,21.32
2023-05-05T11:06:08.915Z,21.25
2023-05-05T11:08:37.086Z,21.42
2023-05-05T11:11:05.077Z,21.32
2023-05-05T11:13:32.449Z,21.50
2023-05-05T11:16:00.767Z,21.39
2023-05-05T11:18:37.940Z,21.30
2023-05-05T11:21:05.036Z,21.32
2023-05-05T11:23:32.068Z,21.46
2023-05-05T11:25:59.245Z,21.51
2023-05-05T11:28:31.754Z,21.52
2023-05-05T11:30:59.375Z,21.62
2023-05-05T11:33:30.998Z,21.61
2023-05-05T11:35:58.798Z,21.84
2023-05-05T11:38:33.542Z,21.86
2023-05-05T11:41:05.969Z,21.80
2023-05-05T11:43:33.968Z,21.64
2023-05-05T11:46:14.039Z,21.77
2023-05-05T11:48:46.339Z,22.11
2023-05-05T11:51:14.353Z,22.25
2023-05-05T11:53:45.275Z,22.40
2023-05-05T11:56:13.307Z,22.56
2023-05-05T11:58:40.666Z,22.25
2023-05-05T12:01:07.982Z,21.99
2023-05-05T12:03:36.558Z,22.05
2023-05-05T12:06:07.729Z,21.93
2023-05-05T12:08:38.419Z,21.79
2023-05-05T12:11:07.977Z,21.78
2023-05-05T12:13:35.306Z,21.77
2023-05-05T12:16:09.483Z,21.72
2023-05-05T12:18:36.740Z,21.79
2023-05-05T12:21:13.976Z,21.86
2023-05-05T12:23:41.178Z,21.65
2023-05-05T12:26:11.465Z,21.73
2023-05-05T12:28:47.023Z,21.77
2023-05-05T12:31:14.422Z,21.79
2023-05-05T12:33:41.859Z,21.72
2023-05-05T12:36:12.506Z,21.97
2023-05-05T12:38:39.840Z,22.00
2023-05-05T12:41:07.738Z,22.13
2023-05-05T12:43:35.948Z,22.33
2023-05-05T12:46:10.990Z,22.46
2023-05-05T12:48:39.584Z,22.55
2023-05-05T12:51:17.214Z,22.54
2023-05-05T12:53:45.382Z,22.52
2023-05-05T12:56:31.244Z,22.60
2023-05-05T12:58:58.721Z,22.52
2023-05-05T13:01:26.350Z,22.66
2023-05-05T13:04:11.411Z,22.74
2023-05-05T13:06:43.586Z,22.56
2023-05-05T13:09:31.276Z,22.63
2023-05-05T13:11:59.388Z,22.86
2023-05-05T13:14:26.385Z,23.08
2023-05-05T13:16:53.687Z,22.91
2023-05-05T13:19:20.760Z,23.27
2023-05-05T13:21:47.877Z,23.16
2023-05-05T13:24:25.948Z,23.02
2023-05-05T13:26:58.543Z,23.03
2023-05-05T13:29:30.391Z,23.26
2023-05-05T13:31:58.663Z,23.37
2023-05-05T13:34:26.005Z,23.56
2023-05-05T13:36:53.151Z,23.88
2023-05-05T13:39:20.549Z,23.78
2023-05-05T13:41:47.675Z,23.59
2023-05-05T13:44:14.880Z,23.79
2023-05-05T13:46:42.951Z,23.91
2023-05-05T13:49:10.367Z,23.95
2023-05-05T13:51:38.940Z,23.65
2023-05-05T13:54:06.858Z,23.51
2023-05-05T13:56:34.701Z,23.39
2023-05-05T13:59:02.994Z,23.32
2023-05-05T14:01:30.451Z,23.33
2023-05-05T14:03:58.151Z,23.37
2023-05-05T14:06:26.432Z,23.35
2023-05-05T14:08:53.813Z,23.55
2023-05-05T14:11:21.312Z,23.36
2023-05-05T14:13:48.396Z,23.24
2023-05-05T14:16:15.931Z,23.14
2023-05-05T14:18:43.245Z,23.03
2023-05-05T14:21:10.899Z,22.91
2023-05-05T14:23:38.049Z,22.79
2023-05-05T14:26:05.264Z,22.63
2023-05-05T14:28:32.828Z,22.66
2023-05-05T14:30:59.881Z,22.62
2023-05-05T14:33:27.243Z,22.78
2023-05-05T14:35:55.623Z,23.03
2023-05-05T14:38:22.992Z,23.12
2023-05-05T14:40:50.339Z,23.16
2023-05-05T14:43:17.349Z,23.12
2023-05-05T14:45:44.989Z,23.02
2023-05-05T14:48:12.236Z,23.07
2023-05-05T14:50:40.836Z,23.13
2023-05-05T14:53:07.898Z,23.14
2023-05-05T14:55:35.095Z,23.13
2023-05-05T14:58:02.227Z,23.42
2023-05-05T15:00:29.712Z,23.51
2023-05-05T15:02:57.300Z,23.29
2023-05-05T15:05:24.525Z,23.04
2023-05-05T15:07:51.747Z,23.03
2023-05-05T15:10:21.221Z,22.83
2023-05-05T15:12:49.757Z,22.57
2023-05-05T15:15:17.178Z,22.91
2023-05-05T15:17:44.257Z,23.06
2023-05-05T15:20:11.517Z,23.03
2023-05-05T15:22:39.008Z,23.29
2023-05-05T15:25:09.923Z,23.08
2023-05-05T15:27:38.364Z,23.13
2023-05-05T15:30:06.326Z,23.34
2023-05-05T15:32:34.203Z,23.33
2023-05-05T15:35:04.814Z,23.15
2023-05-05T15:37:39.030Z,22.95
2023-05-05T15:40:19.394Z,23.01
2023-05-05T15:43:09.015Z,22.96
2023-05-05T15:49:04.432Z,23.15
2023-05-05T15:51:34.699Z,23.19
2023-05-05T15:54:28.003Z,23.20
2023-05-05T15:56:56.499Z,22.99
2023-05-05T15:59:23.827Z,22.98
2023-05-05T16:01:50.990Z,23.03
2023-05-05T16:04:18.300Z,23.02
2023-05-05T16:06:45.505Z,23.13
2023-05-05T16:09:12.784Z,23.23
2023-05-05T16:11:40.042Z,23.24
2023-05-05T16:14:07.734Z,23.06
2023-05-05T16:16:34.897Z,22.76
2023-05-05T16:19:02.204Z,22.74
2023-05-05T16:21:29.830Z,22.63
2023-05-05T16:23:57.022Z,22.44
2023-05-05T16:26:24.552Z,22.49
2023-05-05T16:28:51.642Z,22.37
2023-05-05T16:31:19.036Z,22.27
2023-05-05T16:33:46.460Z,22.10
2023-05-05T16:36:13.567Z,21.94
2023-05-05T16:38:41.376Z,21.83
2023-05-05T16:41:08.737Z,21.79
2023-05-05T16:43:39.071Z,21.79
2023-05-05T16:46:06.670Z,21.69
2023-05-05T16:48:33.849Z,21.61
2023-05-05T16:51:01.179Z,21.52
2023-05-05T16:53:28.861Z,21.51
2023-05-05T16:55:57.164Z,21.49
2023-05-05T16:58:25.480Z,21.54
2023-05-05T17:00:53.101Z,21.55
2023-05-05T17:03:20.760Z,21.57
2023-05-05T17:05:50.354Z,21.57
2023-05-05T17:08:17.988Z,21.55
2023-05-05T17:10:45.651Z,21.40
2023-05-05T17:13:13.631Z,21.39
2023-05-05T17:15:40.988Z,21.31
2023-05-05T17:18:08.704Z,21.34
2023-05-05T17:20:36.688Z,21.26
2023-05-05T17:23:03.917Z,21.10
2023-05-05T17:25:31.867Z,20.84
2023-05-05T17:27:59.174Z,20.87
2023-05-05T17:30:26.717Z,20.85
2023-05-05T17:32:54.028Z,20.74
2023-05-05T17:38:38.403Z,20.74
2023-05-05T17:41:06.822Z,20.65
2023-05-05T17:43:34.071Z,20.61
2023-05-05T17:46:01.531Z,20.54
2023-05-05T17:48:28.898Z,20.35
2023-05-05T17:50:56.313Z,20.35
2023-05-05T17:53:23.627Z,20.30
2023-05-05T17:55:54.826Z,20.21
2023-05-05T17:58:22.291Z,19.97
2023-05-05T18:00:49.420Z,19.88
2023-05-05T18:03:16.592Z,19.80
2023-05-05T18:05:44.319Z,19.85
2023-05-05T18:08:12.296Z,19.72
2023-05-05T18:10:39.400Z,19.72
2023-05-05T18:13:06.563Z,19.60
2023-05-05T18:15:33.760Z,19.58
2023-05-05T18:18:04.822Z,19.42
2023-05-05T18:20:38.152Z,19.31
2023-05-05T18:23:08.304Z,19.22
2023-05-05T18:25:35.812Z,19.27
2023-05-05T18:28:05.912Z,19.24
2023-05-05T18:30:34.187Z,19.21
2023-05-05T18:33:01.212Z,19.13
2023-05-05T18:35:32.011Z,19.04
2023-05-05T18:38:03.152Z,18.96
2023-05-05T18:40:30.310Z,18.91
2023-05-05T18:42:57.886Z,18.89
2023-05-05T18:45:25.001Z,18.83
2023-05-05T18:47:55.576Z,18.73
2023-05-05T18:50:22.796Z,18.65
2023-05-05T18:52:54.601Z,18.49
2023-05-05T18:55:28.135Z,18.49
2023-05-05T18:57:55.342Z,18.36
2023-05-05T19:00:22.748Z,18.32
2023-05-05T19:02:50.434Z,18.25
2023-05-05T19:05:17.719Z,18.20
2023-05-05T19:07:46.301Z,18.10
2023-05-05T19:10:13.907Z,18.00
2023-05-05T19:12:41.203Z,17.92
2023-05-05T19:15:08.773Z,17.91
2023-05-05T19:17:40.983Z,17.86
2023-05-05T19:20:09.450Z,17.81
2023-05-05T19:22:37.025Z,17.76
2023-05-05T19:25:04.575Z,17.71
2023-05-05T19:27:34.419Z,17.64
2023-05-05T19:30:01.716Z,17.55
2023-05-05T19:32:30.166Z,17.46
2023-05-05T19:35:02.941Z,17.39
2023-05-05T19:37:30.181Z,17.36
2023-05-05T19:39:57.749Z,17.29
2023-05-05T19:42:25.031Z,17.19
2023-05-05T19:44:52.324Z,17.09
2023-05-05T19:47:19.403Z,17.04
2023-05-05T19:49:46.713Z,16.95
2023-05-05T19:52:13.830Z,16.84
2023-05-05T19:54:41.534Z,16.83
2023-05-05T19:57:08.962Z,16.73
2023-05-05T19:59:36.080Z,16.70
2023-05-05T20:02:03.406Z,16.64
2023-05-05T20:04:30.569Z,16.51
2023-05-05T20:06:57.759Z,16.46
2023-05-05T20:09:24.879Z,16.37
2023-05-05T20:11:52.045Z,16.37
2023-05-05T20:14:19.186Z,16.31
2023-05-05T20:16:46.484Z,16.27
2023-05-05T20:19:15.170Z,16.18
2023-05-05T20:21:45.102Z,16.19
2023-05-05T20:24:12.748Z,16.12
2023-05-05T20:26:39.979Z,16.06
2023-05-05T20:29:07.206Z,16.00
2023-05-05T20:31:35.533Z,15.93
2023-05-05T20:34:03.203Z,15.86
2023-05-05T20:36:30.501Z,15.79
2023-05-05T20:38:58.021Z,15.67
2023-05-05T20:41:25.292Z,15.62
2023-05-05T20:43:52.832Z,15.56
2023-05-05T20:46:20.290Z,15.58
2023-05-05T20:48:47.753Z,15.42
2023-05-05T20:51:15.061Z,15.32
2023-05-05T20:53:42.509Z,15.28
2023-05-05T20:56:09.923Z,15.25
2023-05-05T20:58:37.554Z,15.18
2023-05-05T21:01:04.794Z,15.12
2023-05-05T21:03:32.065Z,15.09
2023-05-05T21:05:59.370Z,15.09
2023-05-05T21:08:27.133Z,15.01
2023-05-05T21:10:54.297Z,14.97
2023-05-05T21:13:21.591Z,14.82
2023-05-05T21:15:50.619Z,14.85
2023-05-05T21:18:17.639Z,14.83
2023-05-05T21:20:44.707Z,14.86
2023-05-05T21:23:12.178Z,14.85
2023-05-05T21:25:39.747Z,14.79
2023-05-05T21:28:06.953Z,14.76
2023-05-05T21:30:34.120Z,14.71
2023-05-05T21:33:01.285Z,14.61
2023-05-05T21:35:28.696Z,14.58
2023-05-05T21:37:57.127Z,14.61
2023-05-05T21:40:24.280Z,14.57
2023-05-05T21:42:51.466Z,14.43
2023-05-05T21:45:18.577Z,14.36
2023-05-05T21:47:46.146Z,14.31
2023-05-05T21:50:13.284Z,14.37
2023-05-05T21:52:40.632Z,14.31
2023-05-05T21:55:08.322Z,14.30
2023-05-05T21:57:35.367Z,14.30
2023-05-05T22:00:02.800Z,14.15
2023-05-05T22:02:39.657Z,14.18
2023-05-05T22:05:31.382Z,14.18
2023-05-05T22:07:58.465Z,14.17
2023-05-05T22:10:25.432Z,14.11
2023-05-05T22:12:52.689Z,14.09
2023-05-05T22:15:20.581Z,14.09
2023-05-05T22:17:47.697Z,14.02
2023-05-05T22:20:15.123Z,14.00
2023-05-05T22:22:42.648Z,13.91
2023-05-05T22:25:10.159Z,13.89
2023-05-05T22:27:37.585Z,13.88
2023-05-05T22:30:04.969Z,13.84
2023-05-05T22:32:32.931Z,13.81
2023-05-05T22:35:00.462Z,13.80
2023-05-05T22:37:27.960Z,13.73
2023-05-05T22:39:54.957Z,13.73
2023-05-05T22:42:22.154Z,13.70
2023-05-05T22:44:49.822Z,13.67
2023-05-05T22:47:17.032Z,13.64
2023-05-05T22:49:44.337Z,13.60
2023-05-05T22:52:12.105Z,13.56
2023-05-05T22:54:39.141Z,13.50
2023-05-05T22:57:06.343Z,13.49
2023-05-05T22:59:33.431Z,13.50
2023-05-05T23:02:00.716Z,13.46
2023-05-05T23:04:27.933Z,13.42
2023-05-05T23:06:55.155Z,13.39
2023-05-05T23:09:22.228Z,13.31
2023-05-05T23:11:49.486Z,13.32
2023-05-05T23:14:19.752Z,13.22
2023-05-05T23:16:46.925Z,13.17
2023-05-05T23:19:14.858Z,13.11
2023-05-05T23:21:52.027Z,13.18
2023-05-05T23:24:21.262Z,13.10
2023-05-05T23:26:48.406Z,13.10
2023-05-05T23:29:15.441Z,13.09
2023-05-05T23:31:42.753Z,13.12
2023-05-05T23:34:09.921Z,13.09
2023-05-05T23:36:37.241Z,13.13
2023-05-05T23:39:04.419Z,13.16
2023-05-05T23:41:31.533Z,13.04
2023-05-05T23:43:58.656Z,13.03
2023-05-05T23:46:25.854Z,13.00
2023-05-05T23:48:53.150Z,12.97
2023-05-05T23:51:20.507Z,12.93
2023-05-05T23:53:47.753Z,12.87
2023-05-05T23:56:14.916Z,12.85
2023-05-05T23:58:42.204Z,12.85
